Terminal Aerodrome Forecast
Issued by NWS Buffalo, NY

Home | Current Version | Previous Version | Text Only | Print | Product List | Glossary On
Versions: 1 2 3 4 5 6 7 8 9 10 11 12 13 14 15 16 17 18 19 20 21 22 23 24 25 26 27
000
FTUS41 KBUF 160300 AAB
TAFBUF
TAF AMD
KBUF 160317Z 1603/1624 23003KT 4SM -RA BR FEW012 BKN030 OVC035
     FM160400 22005KT 3SM RA BKN025 OVC050
     FM160700 24004KT P6SM -SHRA SCT025 OVC030
     FM160800 27004KT P6SM BKN020 BKN025
     FM161000 29004KT P6SM SCT100 BKN250
     FM161200 33005KT P6SM SCT100 BKN250
     FM162000 29008KT P6SM SCT250=

USA.gov is the U.S. government's official web portal to all federal, state and local government web resources and services.